Terminal Aerodrome Forecast
Issued by NWS

Home | Current Version | Previous Version | Graphics & Text | Print | Product List | Glossary On
Versions: 1 2 3 4 5 6 7 8 9 10 11 12 13
000
FTUS45 KGGW 221138
TAFSDY
TAF
KSDY 221138Z 2212/2312 28009KT P6SM FEW170
     FM221600 29019G27KT P6SM FEW090
     FM222200 30025G34KT P6SM BKN090
     FM230600 31018KT P6SM BKN035
     FM230900 31013G21KT P6SM SCT026=

USA.gov is the U.S. government's official web portal to all federal, state and local government web resources and services.